sensor_id;sensor_type;location;lat;lon;timestamp;temperature;humidity
3919;DHT22;1974;48.670;8.994;2022-12-10T00:02:02;1.50;99.90
3919;DHT22;1974;48.670;8.994;2022-12-10T00:04:29;1.50;99.90
3919;DHT22;1974;48.670;8.994;2022-12-10T00:06:57;1.50;99.90
3919;DHT22;1974;48.670;8.994;2022-12-10T00:09:24;1.50;99.90
3919;DHT22;1974;48.670;8.994;2022-12-10T00:11:50;1.50;99.90
3919;DHT22;1974;48.670;8.994;2022-12-10T00:14:18;1.50;99.90
3919;DHT22;1974;48.670;8.994;2022-12-10T00:16:44;1.60;99.90
3919;DHT22;1974;48.670;8.994;2022-12-10T00:19:11;1.50;99.90
3919;DHT22;1974;48.670;8.994;2022-12-10T00:21:38;1.50;99.90
3919;DHT22;1974;48.670;8.994;2022-12-10T00:24:07;1.50;99.90
3919;DHT22;1974;48.670;8.994;2022-12-10T00:26:36;1.60;99.90
3919;DHT22;1974;48.670;8.994;2022-12-10T00:29:05;1.60;99.90
3919;DHT22;1974;48.670;8.994;2022-12-10T00:31:35;1.60;99.90
3919;DHT22;1974;48.670;8.994;2022-12-10T00:34:04;1.60;99.90
3919;DHT22;1974;48.670;8.994;2022-12-10T00:36:32;1.60;99.90
3919;DHT22;1974;48.670;8.994;2022-12-10T00:39:00;1.60;99.90
3919;DHT22;1974;48.670;8.994;2022-12-10T00:41:29;1.60;99.90
3919;DHT22;1974;48.670;8.994;2022-12-10T00:43:56;1.60;99.90
3919;DHT22;1974;48.670;8.994;2022-12-10T00:46:23;1.60;99.90
3919;DHT22;1974;48.670;8.994;2022-12-10T00:48:50;1.50;99.90
3919;DHT22;1974;48.670;8.994;2022-12-10T00:51:18;1.50;99.90
3919;DHT22;1974;48.670;8.994;2022-12-10T00:53:47;1.50;99.90
3919;DHT22;1974;48.670;8.994;2022-12-10T00:56:17;1.60;99.90
3919;DHT22;1974;48.670;8.994;2022-12-10T00:58:47;1.60;99.90
3919;DHT22;1974;48.670;8.994;2022-12-10T01:01:16;1.60;99.90
3919;DHT22;1974;48.670;8.994;2022-12-10T01:03:43;1.60;99.90
3919;DHT22;1974;48.670;8.994;2022-12-10T01:06:12;1.60;99.90
3919;DHT22;1974;48.670;8.994;2022-12-10T01:08:40;1.60;99.90
3919;DHT22;1974;48.670;8.994;2022-12-10T01:11:08;1.60;99.90
3919;DHT22;1974;48.670;8.994;2022-12-10T01:13:36;1.60;99.90
3919;DHT22;1974;48.670;8.994;2022-12-10T01:16:06;1.60;99.90
3919;DHT22;1974;48.670;8.994;2022-12-10T01:18:34;1.60;99.90
3919;DHT22;1974;48.670;8.994;2022-12-10T01:21:02;1.60;99.90
3919;DHT22;1974;48.670;8.994;2022-12-10T01:23:32;1.60;99.90
3919;DHT22;1974;48.670;8.994;2022-12-10T01:26:00;1.60;99.90
3919;DHT22;1974;48.670;8.994;2022-12-10T01:28:29;1.60;99.90
3919;DHT22;1974;48.670;8.994;2022-12-10T01:31:00;1.60;99.90
3919;DHT22;1974;48.670;8.994;2022-12-10T01:33:28;1.60;99.90
3919;DHT22;1974;48.670;8.994;2022-12-10T01:35:55;1.70;99.90
3919;DHT22;1974;48.670;8.994;2022-12-10T01:38:22;1.70;99.90
3919;DHT22;1974;48.670;8.994;2022-12-10T01:40:48;1.70;99.90
3919;DHT22;1974;48.670;8.994;2022-12-10T01:43:15;1.70;99.90
3919;DHT22;1974;48.670;8.994;2022-12-10T01:45:42;1.70;99.90
3919;DHT22;1974;48.670;8.994;2022-12-10T01:48:09;1.70;99.90
3919;DHT22;1974;48.670;8.994;2022-12-10T01:50:37;1.70;99.90
3919;DHT22;1974;48.670;8.994;2022-12-10T01:53:04;1.70;99.90
3919;DHT22;1974;48.670;8.994;2022-12-10T01:55:38;1.70;99.90
3919;DHT22;1974;48.670;8.994;2022-12-10T01:58:06;1.70;99.90
3919;DHT22;1974;48.670;8.994;2022-12-10T02:00:34;1.70;99.90
3919;DHT22;1974;48.670;8.994;2022-12-10T02:03:08;1.70;99.90
3919;DHT22;1974;48.670;8.994;2022-12-10T02:05:42;1.60;99.90
3919;DHT22;1974;48.670;8.994;2022-12-10T02:08:17;1.60;99.90
3919;DHT22;1974;48.670;8.994;2022-12-10T02:10:57;1.60;99.90
3919;DHT22;1974;48.670;8.994;2022-12-10T02:13:28;1.60;99.90
3919;DHT22;1974;48.670;8.994;2022-12-10T02:16:00;1.60;99.90
3919;DHT22;1974;48.670;8.994;2022-12-10T02:18:30;1.60;99.90
3919;DHT22;1974;48.670;8.994;2022-12-10T02:21:03;1.60;99.90
3919;DHT22;1974;48.670;8.994;2022-12-10T02:23:35;1.60;99.90
3919;DHT22;1974;48.670;8.994;2022-12-10T02:26:10;1.60;99.90
3919;DHT22;1974;48.670;8.994;2022-12-10T02:28:44;1.60;99.90
3919;DHT22;1974;48.670;8.994;2022-12-10T02:31:17;1.60;99.90
3919;DHT22;1974;48.670;8.994;2022-12-10T02:33:48;1.60;99.90
3919;DHT22;1974;48.670;8.994;2022-12-10T02:36:17;1.50;99.90
3919;DHT22;1974;48.670;8.994;2022-12-10T02:38:46;1.40;99.90
3919;DHT22;1974;48.670;8.994;2022-12-10T02:41:15;1.40;99.90
3919;DHT22;1974;48.670;8.994;2022-12-10T02:43:43;1.40;99.90
3919;DHT22;1974;48.670;8.994;2022-12-10T02:46:13;1.30;99.90
3919;DHT22;1974;48.670;8.994;2022-12-10T02:48:40;1.30;99.90
3919;DHT22;1974;48.670;8.994;2022-12-10T02:51:07;1.20;99.90
3919;DHT22;1974;48.670;8.994;2022-12-10T02:53:41;1.30;99.90
3919;DHT22;1974;48.670;8.994;2022-12-10T02:56:14;1.20;99.90
3919;DHT22;1974;48.670;8.994;2022-12-10T02:58:53;1.20;99.90
3919;DHT22;1974;48.670;8.994;2022-12-10T03:01:32;1.20;99.90
3919;DHT22;1974;48.670;8.994;2022-12-10T03:04:02;1.20;99.90
3919;DHT22;1974;48.670;8.994;2022-12-10T03:06:34;1.20;99.90
3919;DHT22;1974;48.670;8.994;2022-12-10T03:09:06;1.20;99.90
3919;DHT22;1974;48.670;8.994;2022-12-10T03:11:34;1.30;99.90
3919;DHT22;1974;48.670;8.994;2022-12-10T03:14:05;1.30;99.90
3919;DHT22;1974;48.670;8.994;2022-12-10T03:16:39;1.40;99.90
3919;DHT22;1974;48.670;8.994;2022-12-10T03:19:13;1.40;99.90
3919;DHT22;1974;48.670;8.994;2022-12-10T03:21:41;1.40;99.90
3919;DHT22;1974;48.670;8.994;2022-12-10T03:24:11;1.40;99.90
3919;DHT22;1974;48.670;8.994;2022-12-10T03:26:39;1.40;99.90
3919;DHT22;1974;48.670;8.994;2022-12-10T03:29:09;1.40;99.90
3919;DHT22;1974;48.670;8.994;2022-12-10T03:31:39;1.40;99.90
3919;DHT22;1974;48.670;8.994;2022-12-10T03:34:08;1.40;99.90
3919;DHT22;1974;48.670;8.994;2022-12-10T03:36:36;1.40;99.90
3919;DHT22;1974;48.670;8.994;2022-12-10T03:39:05;1.40;99.90
3919;DHT22;1974;48.670;8.994;2022-12-10T03:41:32;1.40;99.90
3919;DHT22;1974;48.670;8.994;2022-12-10T03:43:59;1.40;99.90
3919;DHT22;1974;48.670;8.994;2022-12-10T03:46:30;1.40;99.90
3919;DHT22;1974;48.670;8.994;2022-12-10T03:49:02;1.50;99.90
3919;DHT22;1974;48.670;8.994;2022-12-10T03:51:29;1.50;99.90
3919;DHT22;1974;48.670;8.994;2022-12-10T03:53:56;1.50;99.90
3919;DHT22;1974;48.670;8.994;2022-12-10T03:56:22;1.50;99.90
3919;DHT22;1974;48.670;8.994;2022-12-10T03:58:49;1.50;99.90
3919;DHT22;1974;48.670;8.994;2022-12-10T04:01:16;1.60;99.90
3919;DHT22;1974;48.670;8.994;2022-12-10T04:03:43;1.50;99.90
3919;DHT22;1974;48.670;8.994;2022-12-10T04:06:14;1.60;99.90
3919;DHT22;1974;48.670;8.994;2022-12-10T04:08:41;1.60;99.90
3919;DHT22;1974;48.670;8.994;2022-12-10T04:11:10;1.60;99.90
3919;DHT22;1974;48.670;8.994;2022-12-10T04:13:38;1.60;99.90
3919;DHT22;1974;48.670;8.994;2022-12-10T04:16:23;1.60;99.90
3919;DHT22;1974;48.670;8.994;2022-12-10T04:18:53;1.60;99.90
3919;DHT22;1974;48.670;8.994;2022-12-10T04:21:21;1.60;99.90
3919;DHT22;1974;48.670;8.994;2022-12-10T04:24:07;1.60;99.90
3919;DHT22;1974;48.670;8.994;2022-12-10T04:26:52;1.70;99.90
3919;DHT22;1974;48.670;8.994;2022-12-10T04:29:19;1.70;99.90
3919;DHT22;1974;48.670;8.994;2022-12-10T04:31:45;1.70;99.90
3919;DHT22;1974;48.670;8.994;2022-12-10T04:34:12;1.70;99.90
3919;DHT22;1974;48.670;8.994;2022-12-10T04:36:40;1.70;99.90
3919;DHT22;1974;48.670;8.994;2022-12-10T04:39:07;1.70;99.90
3919;DHT22;1974;48.670;8.994;2022-12-10T04:41:37;1.70;99.90
3919;DHT22;1974;48.670;8.994;2022-12-10T04:44:04;1.60;99.90
3919;DHT22;1974;48.670;8.994;2022-12-10T04:46:31;1.60;99.90
3919;DHT22;1974;48.670;8.994;2022-12-10T04:48:58;1.60;99.90
3919;DHT22;1974;48.670;8.994;2022-12-10T04:51:25;1.60;99.90
3919;DHT22;1974;48.670;8.994;2022-12-10T04:53:53;1.60;99.90
3919;DHT22;1974;48.670;8.994;2022-12-10T04:56:20;1.70;99.90
3919;DHT22;1974;48.670;8.994;2022-12-10T04:58:47;1.70;99.90
3919;DHT22;1974;48.670;8.994;2022-12-10T05:01:14;1.70;99.90
3919;DHT22;1974;48.670;8.994;2022-12-10T05:03:41;1.60;99.90
3919;DHT22;1974;48.670;8.994;2022-12-10T05:06:09;1.60;99.90
3919;DHT22;1974;48.670;8.994;2022-12-10T05:08:36;1.60;99.90
3919;DHT22;1974;48.670;8.994;2022-12-10T05:11:07;1.50;99.90
3919;DHT22;1974;48.670;8.994;2022-12-10T05:13:34;1.50;99.90
3919;DHT22;1974;48.670;8.994;2022-12-10T05:16:02;1.50;99.90
3919;DHT22;1974;48.670;8.994;2022-12-10T05:18:29;1.40;99.90
3919;DHT22;1974;48.670;8.994;2022-12-10T05:20:58;1.40;99.90
3919;DHT22;1974;48.670;8.994;2022-12-10T05:23:24;1.50;99.90
3919;DHT22;1974;48.670;8.994;2022-12-10T05:25:58;1.40;99.90
3919;DHT22;1974;48.670;8.994;2022-12-10T05:28:27;1.40;99.90
3919;DHT22;1974;48.670;8.994;2022-12-10T05:30:54;1.40;99.90
3919;DHT22;1974;48.670;8.994;2022-12-10T05:33:22;1.40;99.90
3919;DHT22;1974;48.670;8.994;2022-12-10T05:35:53;1.40;99.90
3919;DHT22;1974;48.670;8.994;2022-12-10T05:38:20;1.50;99.90
3919;DHT22;1974;48.670;8.994;2022-12-10T05:40:47;1.40;99.90
3919;DHT22;1974;48.670;8.994;2022-12-10T05:43:14;1.40;99.90
3919;DHT22;1974;48.670;8.994;2022-12-10T05:45:42;1.40;99.90
3919;DHT22;1974;48.670;8.994;2022-12-10T05:48:09;1.50;99.90
3919;DHT22;1974;48.670;8.994;2022-12-10T05:50:37;1.50;99.90
3919;DHT22;1974;48.670;8.994;2022-12-10T05:53:04;1.50;99.90
3919;DHT22;1974;48.670;8.994;2022-12-10T05:55:31;1.50;99.90
3919;DHT22;1974;48.670;8.994;2022-12-10T05:57:58;1.50;99.90
3919;DHT22;1974;48.670;8.994;2022-12-10T06:00:25;1.40;99.90
3919;DHT22;1974;48.670;8.994;2022-12-10T06:02:54;1.40;99.90
3919;DHT22;1974;48.670;8.994;2022-12-10T06:05:21;1.40;99.90
3919;DHT22;1974;48.670;8.994;2022-12-10T06:07:47;1.30;99.90
3919;DHT22;1974;48.670;8.994;2022-12-10T06:10:14;1.30;99.90
3919;DHT22;1974;48.670;8.994;2022-12-10T06:12:41;1.30;99.90
3919;DHT22;1974;48.670;8.994;2022-12-10T06:15:08;1.30;99.90
3919;DHT22;1974;48.670;8.994;2022-12-10T06:17:35;1.40;99.90
3919;DHT22;1974;48.670;8.994;2022-12-10T06:20:04;1.30;99.90
3919;DHT22;1974;48.670;8.994;2022-12-10T06:22:33;1.30;99.90
3919;DHT22;1974;48.670;8.994;2022-12-10T06:25:00;1.30;99.90
3919;DHT22;1974;48.670;8.994;2022-12-10T06:27:28;1.30;99.90
3919;DHT22;1974;48.670;8.994;2022-12-10T06:29:55;1.40;99.90
3919;DHT22;1974;48.670;8.994;2022-12-10T06:32:22;1.30;99.90
3919;DHT22;1974;48.670;8.994;2022-12-10T06:34:49;1.30;99.90
3919;DHT22;1974;48.670;8.994;2022-12-10T06:37:17;1.30;99.90
3919;DHT22;1974;48.670;8.994;2022-12-10T06:39:43;1.30;99.90
3919;DHT22;1974;48.670;8.994;2022-12-10T06:42:10;1.30;99.90
3919;DHT22;1974;48.670;8.994;2022-12-10T06:44:37;1.30;99.90
3919;DHT22;1974;48.670;8.994;2022-12-10T06:47:04;1.20;99.90
3919;DHT22;1974;48.670;8.994;2022-12-10T06:49:31;1.20;99.90
3919;DHT22;1974;48.670;8.994;2022-12-10T06:51:57;1.20;99.90
3919;DHT22;1974;48.670;8.994;2022-12-10T06:54:25;1.20;99.90
3919;DHT22;1974;48.670;8.994;2022-12-10T06:56:52;1.20;99.90
3919;DHT22;1974;48.670;8.994;2022-12-10T06:59:19;1.20;99.90
3919;DHT22;1974;48.670;8.994;2022-12-10T07:01:47;1.20;99.90
3919;DHT22;1974;48.670;8.994;2022-12-10T07:04:14;1.20;99.90
3919;DHT22;1974;48.670;8.994;2022-12-10T07:06:41;1.20;99.90
3919;DHT22;1974;48.670;8.994;2022-12-10T07:09:08;1.20;99.90
3919;DHT22;1974;48.670;8.994;2022-12-10T07:11:37;1.20;99.90
3919;DHT22;1974;48.670;8.994;2022-12-10T07:14:04;1.20;99.90
3919;DHT22;1974;48.670;8.994;2022-12-10T07:16:32;1.20;99.90
3919;DHT22;1974;48.670;8.994;2022-12-10T07:19:00;1.20;99.90
3919;DHT22;1974;48.670;8.994;2022-12-10T07:21:30;1.10;99.90
3919;DHT22;1974;48.670;8.994;2022-12-10T07:23:59;1.10;99.90
3919;DHT22;1974;48.670;8.994;2022-12-10T07:26:28;1.10;99.90
3919;DHT22;1974;48.670;8.994;2022-12-10T07:28:58;1.20;99.90
3919;DHT22;1974;48.670;8.994;2022-12-10T07:31:25;1.10;99.90
3919;DHT22;1974;48.670;8.994;2022-12-10T07:33:53;1.10;99.90
3919;DHT22;1974;48.670;8.994;2022-12-10T07:36:22;1.20;99.90
3919;DHT22;1974;48.670;8.994;2022-12-10T07:38:49;1.10;99.90
3919;DHT22;1974;48.670;8.994;2022-12-10T07:41:16;1.10;99.90
3919;DHT22;1974;48.670;8.994;2022-12-10T07:43:44;1.10;99.90
3919;DHT22;1974;48.670;8.994;2022-12-10T07:46:14;1.10;99.90
3919;DHT22;1974;48.670;8.994;2022-12-10T07:48:45;1.10;99.90
3919;DHT22;1974;48.670;8.994;2022-12-10T07:51:12;1.20;99.90
3919;DHT22;1974;48.670;8.994;2022-12-10T07:53:39;1.20;99.90
3919;DHT22;1974;48.670;8.994;2022-12-10T07:56:06;1.20;99.90
3919;DHT22;1974;48.670;8.994;2022-12-10T07:58:34;1.20;99.90
3919;DHT22;1974;48.670;8.994;2022-12-10T08:01:06;1.20;99.90
3919;DHT22;1974;48.670;8.994;2022-12-10T08:03:34;1.20;99.90
3919;DHT22;1974;48.670;8.994;2022-12-10T08:06:02;1.30;99.90
3919;DHT22;1974;48.670;8.994;2022-12-10T08:08:29;1.30;99.90
3919;DHT22;1974;48.670;8.994;2022-12-10T08:10:59;1.30;99.90
3919;DHT22;1974;48.670;8.994;2022-12-10T08:13:26;1.30;99.90
3919;DHT22;1974;48.670;8.994;2022-12-10T08:15:53;1.30;99.90
3919;DHT22;1974;48.670;8.994;2022-12-10T08:18:20;1.30;99.90
3919;DHT22;1974;48.670;8.994;2022-12-10T08:20:48;1.40;99.90
3919;DHT22;1974;48.670;8.994;2022-12-10T08:23:15;1.40;99.90
3919;DHT22;1974;48.670;8.994;2022-12-10T08:25:41;1.40;99.90
3919;DHT22;1974;48.670;8.994;2022-12-10T08:28:08;1.50;99.90
3919;DHT22;1974;48.670;8.994;2022-12-10T08:30:35;1.50;99.90
3919;DHT22;1974;48.670;8.994;2022-12-10T08:33:02;1.50;99.90
3919;DHT22;1974;48.670;8.994;2022-12-10T08:35:29;1.60;99.90
3919;DHT22;1974;48.670;8.994;2022-12-10T08:37:57;1.60;99.90
3919;DHT22;1974;48.670;8.994;2022-12-10T08:40:23;1.60;99.90
3919;DHT22;1974;48.670;8.994;2022-12-10T08:42:51;1.70;99.90
3919;DHT22;1974;48.670;8.994;2022-12-10T08:45:18;1.70;99.90
3919;DHT22;1974;48.670;8.994;2022-12-10T08:47:45;1.70;99.90
3919;DHT22;1974;48.670;8.994;2022-12-10T08:50:11;1.70;99.90
3919;DHT22;1974;48.670;8.994;2022-12-10T08:52:38;1.70;99.90
3919;DHT22;1974;48.670;8.994;2022-12-10T08:55:07;1.70;99.90
3919;DHT22;1974;48.670;8.994;2022-12-10T08:57:34;1.80;99.90
3919;DHT22;1974;48.670;8.994;2022-12-10T09:00:02;1.80;99.90
3919;DHT22;1974;48.670;8.994;2022-12-10T09:02:29;1.80;99.90
3919;DHT22;1974;48.670;8.994;2022-12-10T09:04:56;1.80;99.90
3919;DHT22;1974;48.670;8.994;2022-12-10T09:07:23;1.90;99.90
3919;DHT22;1974;48.670;8.994;2022-12-10T09:09:50;1.90;99.90
3919;DHT22;1974;48.670;8.994;2022-12-10T09:12:18;1.90;99.90
3919;DHT22;1974;48.670;8.994;2022-12-10T09:14:45;1.90;99.90
3919;DHT22;1974;48.670;8.994;2022-12-10T09:17:11;1.90;99.90
3919;DHT22;1974;48.670;8.994;2022-12-10T09:19:38;1.90;99.90
3919;DHT22;1974;48.670;8.994;2022-12-10T09:22:05;1.80;99.90
3919;DHT22;1974;48.670;8.994;2022-12-10T09:24:32;1.80;99.90
3919;DHT22;1974;48.670;8.994;2022-12-10T09:26:59;1.80;99.90
3919;DHT22;1974;48.670;8.994;2022-12-10T09:29:28;1.80;99.90
3919;DHT22;1974;48.670;8.994;2022-12-10T09:31:54;1.80;99.90
3919;DHT22;1974;48.670;8.994;2022-12-10T09:34:21;1.80;99.90
3919;DHT22;1974;48.670;8.994;2022-12-10T09:36:48;1.80;99.90
3919;DHT22;1974;48.670;8.994;2022-12-10T09:39:15;1.80;99.90
3919;DHT22;1974;48.670;8.994;2022-12-10T09:41:56;1.80;99.90
3919;DHT22;1974;48.670;8.994;2022-12-10T09:44:36;1.80;99.90
3919;DHT22;1974;48.670;8.994;2022-12-10T09:47:08;1.80;99.90
3919;DHT22;1974;48.670;8.994;2022-12-10T09:49:43;1.80;99.90
3919;DHT22;1974;48.670;8.994;2022-12-10T09:52:16;1.70;99.90
3919;DHT22;1974;48.670;8.994;2022-12-10T09:54:47;1.80;99.90
3919;DHT22;1974;48.670;8.994;2022-12-10T09:57:19;1.80;99.90
3919;DHT22;1974;48.670;8.994;2022-12-10T09:59:50;1.80;99.90
3919;DHT22;1974;48.670;8.994;2022-12-10T10:02:21;1.80;99.90
3919;DHT22;1974;48.670;8.994;2022-12-10T10:04:50;1.90;99.90
3919;DHT22;1974;48.670;8.994;2022-12-10T10:07:19;1.90;99.90
3919;DHT22;1974;48.670;8.994;2022-12-10T10:09:48;1.90;99.90
3919;DHT22;1974;48.670;8.994;2022-12-10T10:12:15;1.90;99.90
3919;DHT22;1974;48.670;8.994;2022-12-10T10:14:43;2.00;99.90
3919;DHT22;1974;48.670;8.994;2022-12-10T10:17:16;1.90;99.90
3919;DHT22;1974;48.670;8.994;2022-12-10T10:19:44;1.90;99.90
3919;DHT22;1974;48.670;8.994;2022-12-10T10:22:11;1.90;99.90
3919;DHT22;1974;48.670;8.994;2022-12-10T10:24:41;1.90;99.90
3919;DHT22;1974;48.670;8.994;2022-12-10T10:27:15;1.90;99.90
3919;DHT22;1974;48.670;8.994;2022-12-10T10:29:43;2.00;99.90
3919;DHT22;1974;48.670;8.994;2022-12-10T10:32:15;2.00;99.90
3919;DHT22;1974;48.670;8.994;2022-12-10T10:34:43;2.10;99.90
3919;DHT22;1974;48.670;8.994;2022-12-10T10:37:16;2.10;99.90
3919;DHT22;1974;48.670;8.994;2022-12-10T10:39:47;2.20;99.90
3919;DHT22;1974;48.670;8.994;2022-12-10T10:42:27;2.20;99.90
3919;DHT22;1974;48.670;8.994;2022-12-10T10:44:55;2.30;99.90
3919;DHT22;1974;48.670;8.994;2022-12-10T10:47:29;2.30;99.90
3919;DHT22;1974;48.670;8.994;2022-12-10T10:49:56;2.40;99.90
3919;DHT22;1974;48.670;8.994;2022-12-10T10:52:28;2.40;99.90
3919;DHT22;1974;48.670;8.994;2022-12-10T10:54:55;2.50;99.90
3919;DHT22;1974;48.670;8.994;2022-12-10T10:57:24;2.50;99.90
3919;DHT22;1974;48.670;8.994;2022-12-10T10:59:53;2.40;99.90
3919;DHT22;1974;48.670;8.994;2022-12-10T11:02:25;2.40;99.90
3919;DHT22;1974;48.670;8.994;2022-12-10T11:04:55;2.40;99.90
3919;DHT22;1974;48.670;8.994;2022-12-10T11:07:32;2.40;99.90
3919;DHT22;1974;48.670;8.994;2022-12-10T11:10:00;2.40;99.90
3919;DHT22;1974;48.670;8.994;2022-12-10T11:12:31;2.50;99.90
3919;DHT22;1974;48.670;8.994;2022-12-10T11:14:59;2.50;99.90
3919;DHT22;1974;48.670;8.994;2022-12-10T11:17:27;2.40;99.90
3919;DHT22;1974;48.670;8.994;2022-12-10T11:19:58;2.40;99.90
3919;DHT22;1974;48.670;8.994;2022-12-10T11:22:29;2.40;99.90
3919;DHT22;1974;48.670;8.994;2022-12-10T11:24:57;2.50;99.90
3919;DHT22;1974;48.670;8.994;2022-12-10T11:27:43;2.40;99.90
3919;DHT22;1974;48.670;8.994;2022-12-10T11:30:14;2.50;99.90
3919;DHT22;1974;48.670;8.994;2022-12-10T11:33:09;2.50;99.90
3919;DHT22;1974;48.670;8.994;2022-12-10T11:35:51;2.50;99.90
3919;DHT22;1974;48.670;8.994;2022-12-10T11:38:26;2.50;99.90
3919;DHT22;1974;48.670;8.994;2022-12-10T11:41:00;2.60;99.90
3919;DHT22;1974;48.670;8.994;2022-12-10T11:43:39;2.60;99.90
3919;DHT22;1974;48.670;8.994;2022-12-10T11:46:21;2.70;99.90
3919;DHT22;1974;48.670;8.994;2022-12-10T11:49:03;2.70;99.90
3919;DHT22;1974;48.670;8.994;2022-12-10T11:51:38;2.70;99.90
